sensor_id;sensor_type;location;lat;lon;timestamp;P1;durP1;ratioP1;P2;durP2;ratioP2
74074;SDS011;62428;51.412;5.432;2022-09-09T00:00:20;2.13;;;0.70;;
74074;SDS011;62428;51.412;5.432;2022-09-09T00:02:51;5.93;;;0.80;;
74074;SDS011;62428;51.412;5.432;2022-09-09T00:07:59;2.60;;;0.60;;
74074;SDS011;62428;51.412;5.432;2022-09-09T00:10:37;3.03;;;0.63;;
74074;SDS011;62428;51.412;5.432;2022-09-09T00:16:04;1.98;;;0.80;;
74074;SDS011;62428;51.412;5.432;2022-09-09T00:21:17;1.30;;;0.60;;
74074;SDS011;62428;51.412;5.432;2022-09-09T00:23:44;1.13;;;0.40;;
74074;SDS011;62428;51.412;5.432;2022-09-09T00:26:33;1.70;;;0.43;;
74074;SDS011;62428;51.412;5.432;2022-09-09T00:31:37;2.22;;;0.70;;
74074;SDS011;62428;51.412;5.432;2022-09-09T00:34:24;2.92;;;0.57;;
74074;SDS011;62428;51.412;5.432;2022-09-09T00:36:51;2.40;;;0.60;;
74074;SDS011;62428;51.412;5.432;2022-09-09T00:39:39;2.17;;;0.50;;
74074;SDS011;62428;51.412;5.432;2022-09-09T00:42:15;2.88;;;0.65;;
74074;SDS011;62428;51.412;5.432;2022-09-09T00:50:03;1.47;;;0.70;;
74074;SDS011;62428;51.412;5.432;2022-09-09T00:52:46;2.60;;;0.70;;
74074;SDS011;62428;51.412;5.432;2022-09-09T00:57:51;1.95;;;0.50;;
74074;SDS011;62428;51.412;5.432;2022-09-09T01:00:19;3.15;;;0.50;;
74074;SDS011;62428;51.412;5.432;2022-09-09T01:02:52;3.87;;;0.53;;
74074;SDS011;62428;51.412;5.432;2022-09-09T01:08:00;3.20;;;0.50;;
74074;SDS011;62428;51.412;5.432;2022-09-09T01:13:15;3.30;;;0.80;;
74074;SDS011;62428;51.412;5.432;2022-09-09T01:15:47;1.03;;;0.47;;
74074;SDS011;62428;51.412;5.432;2022-09-09T01:18:16;1.98;;;0.70;;
74074;SDS011;62428;51.412;5.432;2022-09-09T01:20:57;2.78;;;0.82;;
74074;SDS011;62428;51.412;5.432;2022-09-09T01:26:29;1.80;;;0.73;;
74074;SDS011;62428;51.412;5.432;2022-09-09T01:29:00;2.03;;;0.60;;
74074;SDS011;62428;51.412;5.432;2022-09-09T01:31:30;2.08;;;0.85;;
74074;SDS011;62428;51.412;5.432;2022-09-09T01:34:01;1.48;;;0.52;;
74074;SDS011;62428;51.412;5.432;2022-09-09T01:39:00;4.18;;;0.70;;
74074;SDS011;62428;51.412;5.432;2022-09-09T01:41:26;2.33;;;0.65;;
74074;SDS011;62428;51.412;5.432;2022-09-09T01:43:52;2.60;;;0.83;;
74074;SDS011;62428;51.412;5.432;2022-09-09T01:46:20;3.40;;;0.83;;
74074;SDS011;62428;51.412;5.432;2022-09-09T01:48:47;3.10;;;0.80;;
74074;SDS011;62428;51.412;5.432;2022-09-09T01:51:14;3.13;;;0.90;;
74074;SDS011;62428;51.412;5.432;2022-09-09T01:53:39;2.57;;;0.80;;
74074;SDS011;62428;51.412;5.432;2022-09-09T01:59:24;4.07;;;0.80;;
74074;SDS011;62428;51.412;5.432;2022-09-09T02:04:42;6.95;;;0.70;;
74074;SDS011;62428;51.412;5.432;2022-09-09T02:07:14;5.72;;;0.60;;
74074;SDS011;62428;51.412;5.432;2022-09-09T02:10:40;8.10;;;0.82;;
74074;SDS011;62428;51.412;5.432;2022-09-09T02:12:45;6.53;;;0.80;;
74074;SDS011;62428;51.412;5.432;2022-09-09T02:15:19;2.40;;;0.70;;
74074;SDS011;62428;51.412;5.432;2022-09-09T02:17:57;5.47;;;0.60;;
74074;SDS011;62428;51.412;5.432;2022-09-09T02:20:23;5.68;;;0.60;;
74074;SDS011;62428;51.412;5.432;2022-09-09T02:22:52;2.95;;;0.60;;
74074;SDS011;62428;51.412;5.432;2022-09-09T02:25:20;4.25;;;0.57;;
74074;SDS011;62428;51.412;5.432;2022-09-09T02:27:49;3.27;;;0.60;;
74074;SDS011;62428;51.412;5.432;2022-09-09T02:30:16;4.13;;;0.70;;
74074;SDS011;62428;51.412;5.432;2022-09-09T02:32:42;3.70;;;0.60;;
74074;SDS011;62428;51.412;5.432;2022-09-09T02:35:11;4.22;;;0.80;;
74074;SDS011;62428;51.412;5.432;2022-09-09T02:37:41;2.38;;;0.60;;
74074;SDS011;62428;51.412;5.432;2022-09-09T02:40:08;2.70;;;0.60;;
74074;SDS011;62428;51.412;5.432;2022-09-09T02:42:39;4.40;;;0.73;;
74074;SDS011;62428;51.412;5.432;2022-09-09T02:45:06;3.28;;;0.70;;
74074;SDS011;62428;51.412;5.432;2022-09-09T02:47:38;2.97;;;0.55;;
74074;SDS011;62428;51.412;5.432;2022-09-09T02:50:15;6.68;;;1.02;;
74074;SDS011;62428;51.412;5.432;2022-09-09T02:57:59;2.45;;;0.75;;
74074;SDS011;62428;51.412;5.432;2022-09-09T03:00:27;3.17;;;0.70;;
74074;SDS011;62428;51.412;5.432;2022-09-09T03:02:53;3.83;;;0.60;;
74074;SDS011;62428;51.412;5.432;2022-09-09T03:05:20;2.17;;;0.50;;
74074;SDS011;62428;51.412;5.432;2022-09-09T03:07:45;7.13;;;1.00;;
74074;SDS011;62428;51.412;5.432;2022-09-09T03:10:11;6.57;;;0.77;;
74074;SDS011;62428;51.412;5.432;2022-09-09T03:12:37;5.00;;;0.80;;
74074;SDS011;62428;51.412;5.432;2022-09-09T03:15:03;3.47;;;0.80;;
74074;SDS011;62428;51.412;5.432;2022-09-09T03:17:29;3.57;;;1.00;;
74074;SDS011;62428;51.412;5.432;2022-09-09T03:19:54;7.32;;;0.70;;
74074;SDS011;62428;51.412;5.432;2022-09-09T03:22:22;6.87;;;0.90;;
74074;SDS011;62428;51.412;5.432;2022-09-09T03:24:47;3.20;;;0.73;;
74074;SDS011;62428;51.412;5.432;2022-09-09T03:27:13;4.63;;;0.60;;
74074;SDS011;62428;51.412;5.432;2022-09-09T03:29:39;2.93;;;0.80;;
74074;SDS011;62428;51.412;5.432;2022-09-09T03:32:05;9.13;;;1.00;;
74074;SDS011;62428;51.412;5.432;2022-09-09T03:34:30;3.57;;;0.60;;
74074;SDS011;62428;51.412;5.432;2022-09-09T03:36:56;3.90;;;1.08;;
74074;SDS011;62428;51.412;5.432;2022-09-09T03:39:21;6.00;;;0.87;;
74074;SDS011;62428;51.412;5.432;2022-09-09T03:41:47;4.90;;;1.00;;
74074;SDS011;62428;51.412;5.432;2022-09-09T03:44:13;4.72;;;0.82;;
74074;SDS011;62428;51.412;5.432;2022-09-09T03:46:38;2.87;;;0.70;;
74074;SDS011;62428;51.412;5.432;2022-09-09T03:49:04;4.97;;;1.00;;
74074;SDS011;62428;51.412;5.432;2022-09-09T03:51:29;3.88;;;0.73;;
74074;SDS011;62428;51.412;5.432;2022-09-09T03:53:55;5.63;;;1.00;;
74074;SDS011;62428;51.412;5.432;2022-09-09T03:56:21;5.70;;;0.90;;
74074;SDS011;62428;51.412;5.432;2022-09-09T03:58:47;5.20;;;0.90;;
74074;SDS011;62428;51.412;5.432;2022-09-09T04:01:13;2.90;;;0.63;;
74074;SDS011;62428;51.412;5.432;2022-09-09T04:03:39;3.08;;;1.00;;
74074;SDS011;62428;51.412;5.432;2022-09-09T04:06:05;5.35;;;1.10;;
74074;SDS011;62428;51.412;5.432;2022-09-09T04:08:32;4.60;;;0.80;;
74074;SDS011;62428;51.412;5.432;2022-09-09T04:10:58;7.28;;;1.05;;
74074;SDS011;62428;51.412;5.432;2022-09-09T04:13:24;5.63;;;0.80;;
74074;SDS011;62428;51.412;5.432;2022-09-09T04:15:51;4.80;;;1.13;;
74074;SDS011;62428;51.412;5.432;2022-09-09T04:18:21;4.97;;;0.95;;
74074;SDS011;62428;51.412;5.432;2022-09-09T04:20:49;5.82;;;0.98;;
74074;SDS011;62428;51.412;5.432;2022-09-09T04:23:15;4.97;;;1.13;;
74074;SDS011;62428;51.412;5.432;2022-09-09T04:25:44;5.88;;;0.70;;
74074;SDS011;62428;51.412;5.432;2022-09-09T04:28:11;3.30;;;0.82;;
74074;SDS011;62428;51.412;5.432;2022-09-09T04:30:37;7.77;;;1.60;;
74074;SDS011;62428;51.412;5.432;2022-09-09T04:33:04;4.05;;;0.70;;
74074;SDS011;62428;51.412;5.432;2022-09-09T04:35:30;6.10;;;1.07;;
74074;SDS011;62428;51.412;5.432;2022-09-09T04:37:55;6.97;;;1.17;;
74074;SDS011;62428;51.412;5.432;2022-09-09T04:40:21;4.17;;;1.00;;
74074;SDS011;62428;51.412;5.432;2022-09-09T04:42:47;7.82;;;0.93;;
74074;SDS011;62428;51.412;5.432;2022-09-09T04:45:14;6.40;;;1.17;;
74074;SDS011;62428;51.412;5.432;2022-09-09T04:47:40;3.93;;;1.03;;
74074;SDS011;62428;51.412;5.432;2022-09-09T04:50:05;5.73;;;1.07;;
74074;SDS011;62428;51.412;5.432;2022-09-09T04:52:33;8.45;;;0.98;;
74074;SDS011;62428;51.412;5.432;2022-09-09T04:54:59;7.57;;;1.30;;
74074;SDS011;62428;51.412;5.432;2022-09-09T04:57:25;7.10;;;0.87;;
74074;SDS011;62428;51.412;5.432;2022-09-09T04:59:50;9.20;;;1.43;;
74074;SDS011;62428;51.412;5.432;2022-09-09T05:02:15;6.03;;;0.98;;
74074;SDS011;62428;51.412;5.432;2022-09-09T05:04:40;7.47;;;1.37;;
74074;SDS011;62428;51.412;5.432;2022-09-09T05:07:06;9.97;;;1.10;;
74074;SDS011;62428;51.412;5.432;2022-09-09T05:09:31;6.73;;;1.07;;
74074;SDS011;62428;51.412;5.432;2022-09-09T05:11:57;8.53;;;1.33;;
74074;SDS011;62428;51.412;5.432;2022-09-09T05:14:23;7.18;;;1.38;;
74074;SDS011;62428;51.412;5.432;2022-09-09T05:16:48;7.40;;;1.10;;
74074;SDS011;62428;51.412;5.432;2022-09-09T05:19:14;8.75;;;1.08;;
74074;SDS011;62428;51.412;5.432;2022-09-09T05:21:40;4.93;;;1.10;;
74074;SDS011;62428;51.412;5.432;2022-09-09T05:24:06;3.72;;;1.00;;
74074;SDS011;62428;51.412;5.432;2022-09-09T05:26:32;6.47;;;0.87;;
74074;SDS011;62428;51.412;5.432;2022-09-09T05:28:57;9.53;;;1.23;;
74074;SDS011;62428;51.412;5.432;2022-09-09T05:31:24;3.75;;;0.70;;
74074;SDS011;62428;51.412;5.432;2022-09-09T05:33:53;7.90;;;1.03;;
74074;SDS011;62428;51.412;5.432;2022-09-09T05:36:19;4.97;;;0.88;;
74074;SDS011;62428;51.412;5.432;2022-09-09T05:38:46;7.43;;;1.10;;
74074;SDS011;62428;51.412;5.432;2022-09-09T05:41:12;6.43;;;1.00;;
74074;SDS011;62428;51.412;5.432;2022-09-09T05:43:40;8.73;;;1.30;;
74074;SDS011;62428;51.412;5.432;2022-09-09T05:46:08;4.72;;;1.00;;
74074;SDS011;62428;51.412;5.432;2022-09-09T05:48:36;5.55;;;0.80;;
74074;SDS011;62428;51.412;5.432;2022-09-09T05:51:03;11.67;;;1.00;;
74074;SDS011;62428;51.412;5.432;2022-09-09T05:53:30;8.32;;;1.27;;
74074;SDS011;62428;51.412;5.432;2022-09-09T05:56:12;11.32;;;1.30;;
74074;SDS011;62428;51.412;5.432;2022-09-09T05:58:39;10.65;;;1.20;;
74074;SDS011;62428;51.412;5.432;2022-09-09T06:01:09;9.32;;;1.10;;
74074;SDS011;62428;51.412;5.432;2022-09-09T06:03:38;8.53;;;1.33;;
74074;SDS011;62428;51.412;5.432;2022-09-09T06:06:06;6.28;;;0.90;;
74074;SDS011;62428;51.412;5.432;2022-09-09T06:08:37;6.63;;;1.10;;
74074;SDS011;62428;51.412;5.432;2022-09-09T06:11:05;4.88;;;0.93;;
74074;SDS011;62428;51.412;5.432;2022-09-09T06:13:35;12.93;;;1.55;;
74074;SDS011;62428;51.412;5.432;2022-09-09T06:16:02;7.00;;;1.60;;
74074;SDS011;62428;51.412;5.432;2022-09-09T06:18:29;12.10;;;1.58;;
74074;SDS011;62428;51.412;5.432;2022-09-09T06:21:01;9.17;;;1.53;;
74074;SDS011;62428;51.412;5.432;2022-09-09T06:23:29;8.93;;;1.23;;
74074;SDS011;62428;51.412;5.432;2022-09-09T06:28:35;9.98;;;1.92;;
74074;SDS011;62428;51.412;5.432;2022-09-09T06:31:02;10.23;;;1.23;;
74074;SDS011;62428;51.412;5.432;2022-09-09T06:33:34;10.20;;;1.27;;
74074;SDS011;62428;51.412;5.432;2022-09-09T06:36:01;16.00;;;2.08;;
74074;SDS011;62428;51.412;5.432;2022-09-09T06:38:28;11.75;;;1.55;;
74074;SDS011;62428;51.412;5.432;2022-09-09T06:40:54;8.60;;;1.70;;
74074;SDS011;62428;51.412;5.432;2022-09-09T06:43:23;7.10;;;1.42;;
74074;SDS011;62428;51.412;5.432;2022-09-09T06:45:53;10.95;;;1.40;;
74074;SDS011;62428;51.412;5.432;2022-09-09T06:48:20;14.63;;;1.40;;
74074;SDS011;62428;51.412;5.432;2022-09-09T06:50:45;5.17;;;1.20;;
74074;SDS011;62428;51.412;5.432;2022-09-09T06:53:11;7.53;;;1.43;;
74074;SDS011;62428;51.412;5.432;2022-09-09T06:55:36;10.90;;;1.30;;
74074;SDS011;62428;51.412;5.432;2022-09-09T06:58:01;11.07;;;1.40;;
74074;SDS011;62428;51.412;5.432;2022-09-09T07:00:27;8.67;;;1.30;;
74074;SDS011;62428;51.412;5.432;2022-09-09T07:02:53;8.45;;;1.08;;
74074;SDS011;62428;51.412;5.432;2022-09-09T07:05:18;9.17;;;1.33;;
74074;SDS011;62428;51.412;5.432;2022-09-09T07:07:44;6.07;;;1.23;;
74074;SDS011;62428;51.412;5.432;2022-09-09T07:10:09;9.13;;;1.53;;
74074;SDS011;62428;51.412;5.432;2022-09-09T07:12:34;11.90;;;1.63;;
74074;SDS011;62428;51.412;5.432;2022-09-09T07:15:00;9.13;;;1.63;;
74074;SDS011;62428;51.412;5.432;2022-09-09T07:17:25;11.30;;;1.10;;
74074;SDS011;62428;51.412;5.432;2022-09-09T07:19:53;11.73;;;1.52;;
74074;SDS011;62428;51.412;5.432;2022-09-09T07:22:18;6.73;;;1.17;;
74074;SDS011;62428;51.412;5.432;2022-09-09T07:24:44;6.72;;;1.10;;
74074;SDS011;62428;51.412;5.432;2022-09-09T07:27:10;11.70;;;1.37;;
74074;SDS011;62428;51.412;5.432;2022-09-09T07:29:35;7.77;;;1.43;;
74074;SDS011;62428;51.412;5.432;2022-09-09T07:32:00;8.73;;;1.30;;
74074;SDS011;62428;51.412;5.432;2022-09-09T07:34:27;11.13;;;1.77;;
74074;SDS011;62428;51.412;5.432;2022-09-09T07:36:52;10.43;;;1.80;;
74074;SDS011;62428;51.412;5.432;2022-09-09T07:39:18;9.53;;;1.20;;
74074;SDS011;62428;51.412;5.432;2022-09-09T07:41:44;8.77;;;1.13;;
74074;SDS011;62428;51.412;5.432;2022-09-09T07:44:12;13.55;;;1.65;;
74074;SDS011;62428;51.412;5.432;2022-09-09T07:46:39;12.38;;;1.33;;
74074;SDS011;62428;51.412;5.432;2022-09-09T07:49:06;6.55;;;1.13;;
74074;SDS011;62428;51.412;5.432;2022-09-09T07:51:33;9.00;;;1.23;;
74074;SDS011;62428;51.412;5.432;2022-09-09T07:54:00;11.48;;;2.08;;
74074;SDS011;62428;51.412;5.432;2022-09-09T07:56:28;10.38;;;1.17;;
74074;SDS011;62428;51.412;5.432;2022-09-09T07:58:55;8.73;;;1.15;;
74074;SDS011;62428;51.412;5.432;2022-09-09T08:01:22;6.88;;;1.27;;
74074;SDS011;62428;51.412;5.432;2022-09-09T08:03:56;7.80;;;1.30;;
74074;SDS011;62428;51.412;5.432;2022-09-09T08:06:27;8.43;;;1.40;;
74074;SDS011;62428;51.412;5.432;2022-09-09T08:08:53;10.20;;;1.55;;
74074;SDS011;62428;51.412;5.432;2022-09-09T08:11:20;9.48;;;1.55;;
74074;SDS011;62428;51.412;5.432;2022-09-09T08:13:48;11.80;;;1.52;;
74074;SDS011;62428;51.412;5.432;2022-09-09T08:16:15;5.67;;;1.30;;
74074;SDS011;62428;51.412;5.432;2022-09-09T08:18:44;9.30;;;1.15;;
74074;SDS011;62428;51.412;5.432;2022-09-09T08:21:14;8.77;;;1.40;;
74074;SDS011;62428;51.412;5.432;2022-09-09T08:23:42;12.15;;;1.40;;
74074;SDS011;62428;51.412;5.432;2022-09-09T08:26:10;7.60;;;1.10;;
74074;SDS011;62428;51.412;5.432;2022-09-09T08:28:44;7.13;;;0.88;;
74074;SDS011;62428;51.412;5.432;2022-09-09T08:31:14;5.40;;;1.07;;
74074;SDS011;62428;51.412;5.432;2022-09-09T08:33:41;8.57;;;1.20;;
74074;SDS011;62428;51.412;5.432;2022-09-09T08:36:10;9.70;;;1.45;;
74074;SDS011;62428;51.412;5.432;2022-09-09T08:38:37;9.73;;;1.40;;
74074;SDS011;62428;51.412;5.432;2022-09-09T08:54:59;7.53;;;1.15;;
74074;SDS011;62428;51.412;5.432;2022-09-09T08:57:39;12.32;;;1.30;;
74074;SDS011;62428;51.412;5.432;2022-09-09T09:00:04;9.60;;;1.20;;
74074;SDS011;62428;51.412;5.432;2022-09-09T09:02:46;4.47;;;0.90;;
74074;SDS011;62428;51.412;5.432;2022-09-09T09:05:29;7.15;;;1.33;;
74074;SDS011;62428;51.412;5.432;2022-09-09T09:13:20;9.57;;;1.23;;
74074;SDS011;62428;51.412;5.432;2022-09-09T09:15:58;6.18;;;1.02;;
74074;SDS011;62428;51.412;5.432;2022-09-09T09:18:29;8.18;;;1.17;;
74074;SDS011;62428;51.412;5.432;2022-09-09T09:21:07;11.83;;;1.47;;
74074;SDS011;62428;51.412;5.432;2022-09-09T09:23:49;10.15;;;1.67;;
74074;SDS011;62428;51.412;5.432;2022-09-09T09:26:21;4.28;;;1.13;;
74074;SDS011;62428;51.412;5.432;2022-09-09T09:28:51;8.40;;;1.30;;
74074;SDS011;62428;51.412;5.432;2022-09-09T09:31:21;7.53;;;0.90;;
74074;SDS011;62428;51.412;5.432;2022-09-09T09:33:51;9.98;;;1.20;;
74074;SDS011;62428;51.412;5.432;2022-09-09T09:36:19;7.72;;;1.23;;
74074;SDS011;62428;51.412;5.432;2022-09-09T09:39:06;9.75;;;1.25;;
74074;SDS011;62428;51.412;5.432;2022-09-09T09:41:36;8.93;;;1.20;;
74074;SDS011;62428;51.412;5.432;2022-09-09T09:44:05;7.38;;;1.20;;
74074;SDS011;62428;51.412;5.432;2022-09-09T09:46:46;5.18;;;0.95;;
74074;SDS011;62428;51.412;5.432;2022-09-09T09:49:11;7.53;;;1.30;;
74074;SDS011;62428;51.412;5.432;2022-09-09T09:51:38;10.43;;;1.30;;
74074;SDS011;62428;51.412;5.432;2022-09-09T09:54:17;8.93;;;1.10;;
74074;SDS011;62428;51.412;5.432;2022-09-09T09:56:52;7.78;;;1.55;;
74074;SDS011;62428;51.412;5.432;2022-09-09T09:59:34;7.40;;;1.07;;
74074;SDS011;62428;51.412;5.432;2022-09-09T10:02:14;6.70;;;0.77;;
74074;SDS011;62428;51.412;5.432;2022-09-09T10:05:00;6.72;;;1.33;;
74074;SDS011;62428;51.412;5.432;2022-09-09T10:07:43;7.35;;;1.17;;
74074;SDS011;62428;51.412;5.432;2022-09-09T10:10:12;6.90;;;1.30;;
74074;SDS011;62428;51.412;5.432;2022-09-09T10:24:12;6.07;;;1.20;;
74074;SDS011;62428;51.412;5.432;2022-09-09T10:27:05;8.73;;;1.67;;
74074;SDS011;62428;51.412;5.432;2022-09-09T10:35:30;5.05;;;1.35;;
74074;SDS011;62428;51.412;5.432;2022-09-09T10:38:16;5.07;;;1.10;;
74074;SDS011;62428;51.412;5.432;2022-09-09T10:46:21;8.98;;;1.52;;
74074;SDS011;62428;51.412;5.432;2022-09-09T10:55:19;8.87;;;1.60;;
74074;SDS011;62428;51.412;5.432;2022-09-09T10:57:50;7.55;;;1.75;;
74074;SDS011;62428;51.412;5.432;2022-09-09T11:00:21;9.50;;;1.30;;
74074;SDS011;62428;51.412;5.432;2022-09-09T11:02:51;7.25;;;1.50;;
74074;SDS011;62428;51.412;5.432;2022-09-09T11:05:31;8.50;;;1.88;;
74074;SDS011;62428;51.412;5.432;2022-09-09T11:08:18;4.57;;;1.57;;
74074;SDS011;62428;51.412;5.432;2022-09-09T11:14:04;6.40;;;1.38;;
74074;SDS011;62428;51.412;5.432;2022-09-09T11:19:17;5.28;;;1.30;;
74074;SDS011;62428;51.412;5.432;2022-09-09T11:21:56;4.93;;;1.23;;
74074;SDS011;62428;51.412;5.432;2022-09-09T11:24:35;5.95;;;1.13;;
74074;SDS011;62428;51.412;5.432;2022-09-09T11:38:10;6.60;;;1.50;;
74074;SDS011;62428;51.412;5.432;2022-09-09T11:40:59;4.82;;;1.30;;
74074;SDS011;62428;51.412;5.432;2022-09-09T11:43:40;7.72;;;1.00;;
74074;SDS011;62428;51.412;5.432;2022-09-09T11:46:09;6.45;;;1.27;;
74074;SDS011;62428;51.412;5.432;2022-09-09T11:48:39;6.73;;;1.37;;
74074;SDS011;62428;51.412;5.432;2022-09-09T11:59:00;9.25;;;1.60;;
74074;SDS011;62428;51.412;5.432;2022-09-09T12:03:59;6.00;;;1.20;;
74074;SDS011;62428;51.412;5.432;2022-09-09T12:06:42;3.97;;;1.38;;
74074;SDS011;62428;51.412;5.432;2022-09-09T12:12:04;6.30;;;1.40;;
74074;SDS011;62428;51.412;5.432;2022-09-09T12:17:09;8.15;;;1.10;;
74074;SDS011;62428;51.412;5.432;2022-09-09T12:19:41;7.25;;;1.17;;
74074;SDS011;62428;51.412;5.432;2022-09-09T12:29:55;4.00;;;0.90;;
74074;SDS011;62428;51.412;5.432;2022-09-09T12:32:28;9.07;;;1.25;;
74074;SDS011;62428;51.412;5.432;2022-09-09T12:34:55;6.85;;;1.02;;
74074;SDS011;62428;51.412;5.432;2022-09-09T12:37:31;4.63;;;0.95;;
74074;SDS011;62428;51.412;5.432;2022-09-09T12:40:23;8.57;;;1.00;;
74074;SDS011;62428;51.412;5.432;2022-09-09T12:42:49;4.95;;;1.13;;
74074;SDS011;62428;51.412;5.432;2022-09-09T12:45:18;5.95;;;1.10;;
74074;SDS011;62428;51.412;5.432;2022-09-09T12:47:50;9.75;;;1.20;;
74074;SDS011;62428;51.412;5.432;2022-09-09T12:50:23;7.28;;;1.20;;
74074;SDS011;62428;51.412;5.432;2022-09-09T12:52:53;5.67;;;1.10;;
74074;SDS011;62428;51.412;5.432;2022-09-09T12:55:23;2.47;;;0.75;;
74074;SDS011;62428;51.412;5.432;2022-09-09T12:57:52;5.70;;;1.13;;
74074;SDS011;62428;51.412;5.432;2022-09-09T13:00:19;4.77;;;1.00;;
74074;SDS011;62428;51.412;5.432;2022-09-09T13:02:48;7.68;;;1.10;;
74074;SDS011;62428;51.412;5.432;2022-09-09T13:05:17;7.35;;;1.15;;
74074;SDS011;62428;51.412;5.432;2022-09-09T13:07:45;7.50;;;1.20;;
74074;SDS011;62428;51.412;5.432;2022-09-09T13:10:11;5.60;;;0.97;;
74074;SDS011;62428;51.412;5.432;2022-09-09T13:12:37;5.50;;;1.10;;
74074;SDS011;62428;51.412;5.432;2022-09-09T13:15:03;5.97;;;0.90;;
74074;SDS011;62428;51.412;5.432;2022-09-09T13:17:36;4.53;;;1.17;;
74074;SDS011;62428;51.412;5.432;2022-09-09T13:20:01;4.13;;;0.70;;
74074;SDS011;62428;51.412;5.432;2022-09-09T13:22:37;5.77;;;1.10;;
74074;SDS011;62428;51.412;5.432;2022-09-09T13:27:40;7.65;;;1.00;;
74074;SDS011;62428;51.412;5.432;2022-09-09T13:33:34;7.80;;;1.20;;
74074;SDS011;62428;51.412;5.432;2022-09-09T13:38:38;4.28;;;0.88;;
74074;SDS011;62428;51.412;5.432;2022-09-09T13:41:36;4.57;;;0.90;;
74074;SDS011;62428;51.412;5.432;2022-09-09T13:44:14;5.47;;;1.00;;
74074;SDS011;62428;51.412;5.432;2022-09-09T13:46:58;3.50;;;1.10;;
74074;SDS011;62428;51.412;5.432;2022-09-09T13:49:26;10.07;;;1.17;;
74074;SDS011;62428;51.412;5.432;2022-09-09T13:52:02;4.68;;;0.68;;
74074;SDS011;62428;51.412;5.432;2022-09-09T13:54:36;5.65;;;0.77;;
74074;SDS011;62428;51.412;5.432;2022-09-09T13:57:01;3.50;;;0.90;;
74074;SDS011;62428;51.412;5.432;2022-09-09T13:59:27;4.33;;;0.77;;
74074;SDS011;62428;51.412;5.432;2022-09-09T14:01:52;2.30;;;0.73;;
74074;SDS011;62428;51.412;5.432;2022-09-09T14:04:18;4.53;;;0.70;;
74074;SDS011;62428;51.412;5.432;2022-09-09T14:06:48;4.03;;;0.80;;
74074;SDS011;62428;51.412;5.432;2022-09-09T14:09:15;6.10;;;1.07;;
74074;SDS011;62428;51.412;5.432;2022-09-09T14:11:42;4.07;;;0.70;;
74074;SDS011;62428;51.412;5.432;2022-09-09T14:14:08;4.85;;;0.88;;
74074;SDS011;62428;51.412;5.432;2022-09-09T14:16:33;3.23;;;0.70;;
74074;SDS011;62428;51.412;5.432;2022-09-09T14:18:59;4.07;;;0.70;;
74074;SDS011;62428;51.412;5.432;2022-09-09T14:21:25;4.57;;;0.70;;
74074;SDS011;62428;51.412;5.432;2022-09-09T14:23:51;5.22;;;0.90;;
74074;SDS011;62428;51.412;5.432;2022-09-09T14:26:22;4.27;;;0.80;;
74074;SDS011;62428;51.412;5.432;2022-09-09T14:28:48;4.57;;;0.77;;
74074;SDS011;62428;51.412;5.432;2022-09-09T14:31:15;4.25;;;0.85;;
74074;SDS011;62428;51.412;5.432;2022-09-09T14:33:42;3.47;;;0.85;;
74074;SDS011;62428;51.412;5.432;2022-09-09T14:36:08;3.27;;;0.60;;
74074;SDS011;62428;51.412;5.432;2022-09-09T14:38:35;3.13;;;0.80;;
74074;SDS011;62428;51.412;5.432;2022-09-09T14:41:07;3.22;;;0.90;;
74074;SDS011;62428;51.412;5.432;2022-09-09T14:43:39;5.07;;;0.70;;
74074;SDS011;62428;51.412;5.432;2022-09-09T14:46:05;4.38;;;0.90;;
74074;SDS011;62428;51.412;5.432;2022-09-09T14:48:32;3.77;;;0.70;;
74074;SDS011;62428;51.412;5.432;2022-09-09T14:51:04;6.30;;;0.70;;
74074;SDS011;62428;51.412;5.432;2022-09-09T14:53:37;5.43;;;0.65;;
74074;SDS011;62428;51.412;5.432;2022-09-09T14:56:09;4.13;;;0.90;;
74074;SDS011;62428;51.412;5.432;2022-09-09T14:58:40;4.40;;;0.80;;
74074;SDS011;62428;51.412;5.432;2022-09-09T15:01:06;3.90;;;0.80;;
74074;SDS011;62428;51.412;5.432;2022-09-09T15:03:35;5.47;;;0.70;;
74074;SDS011;62428;51.412;5.432;2022-09-09T15:06:08;8.63;;;0.93;;
74074;SDS011;62428;51.412;5.432;2022-09-09T15:08:36;4.93;;;0.70;;
74074;SDS011;62428;51.412;5.432;2022-09-09T15:11:02;5.07;;;0.70;;
74074;SDS011;62428;51.412;5.432;2022-09-09T15:13:29;2.97;;;0.60;;
74074;SDS011;62428;51.412;5.432;2022-09-09T15:15:54;7.90;;;0.77;;
74074;SDS011;62428;51.412;5.432;2022-09-09T15:18:20;4.53;;;0.80;;
74074;SDS011;62428;51.412;5.432;2022-09-09T15:20:46;4.65;;;0.77;;
74074;SDS011;62428;51.412;5.432;2022-09-09T15:23:12;3.83;;;0.68;;
74074;SDS011;62428;51.412;5.432;2022-09-09T15:25:38;4.03;;;0.60;;
74074;SDS011;62428;51.412;5.432;2022-09-09T15:28:18;2.55;;;0.85;;
74074;SDS011;62428;51.412;5.432;2022-09-09T15:30:46;3.27;;;0.67;;
74074;SDS011;62428;51.412;5.432;2022-09-09T15:33:12;4.15;;;1.10;;
74074;SDS011;62428;51.412;5.432;2022-09-09T15:35:38;3.47;;;0.60;;
74074;SDS011;62428;51.412;5.432;2022-09-09T15:38:03;2.70;;;0.50;;
74074;SDS011;62428;51.412;5.432;2022-09-09T15:40:30;5.22;;;0.77;;
74074;SDS011;62428;51.412;5.432;2022-09-09T15:42:57;5.17;;;0.80;;
74074;SDS011;62428;51.412;5.432;2022-09-09T15:45:22;6.93;;;0.80;;
74074;SDS011;62428;51.412;5.432;2022-09-09T15:47:48;5.27;;;0.80;;
74074;SDS011;62428;51.412;5.432;2022-09-09T15:50:14;5.13;;;0.75;;
74074;SDS011;62428;51.412;5.432;2022-09-09T15:52:39;5.53;;;0.80;;
74074;SDS011;62428;51.412;5.432;2022-09-09T15:55:04;5.10;;;0.90;;
74074;SDS011;62428;51.412;5.432;2022-09-09T15:57:30;4.68;;;0.93;;
74074;SDS011;62428;51.412;5.432;2022-09-09T15:59:56;3.87;;;0.77;;
74074;SDS011;62428;51.412;5.432;2022-09-09T16:02:22;4.20;;;0.90;;
74074;SDS011;62428;51.412;5.432;2022-09-09T16:04:47;5.27;;;0.80;;
74074;SDS011;62428;51.412;5.432;2022-09-09T16:07:12;5.03;;;0.80;;
74074;SDS011;62428;51.412;5.432;2022-09-09T16:09:38;5.97;;;0.90;;
74074;SDS011;62428;51.412;5.432;2022-09-09T16:12:04;4.18;;;0.60;;
74074;SDS011;62428;51.412;5.432;2022-09-09T16:14:35;4.05;;;0.77;;
74074;SDS011;62428;51.412;5.432;2022-09-09T16:17:01;2.87;;;0.90;;
74074;SDS011;62428;51.412;5.432;2022-09-09T16:19:30;5.25;;;0.77;;
74074;SDS011;62428;51.412;5.432;2022-09-09T16:21:56;3.38;;;0.85;;
74074;SDS011;62428;51.412;5.432;2022-09-09T16:24:22;4.10;;;0.67;;
74074;SDS011;62428;51.412;5.432;2022-09-09T16:26:49;6.30;;;1.13;;
74074;SDS011;62428;51.412;5.432;2022-09-09T16:29:17;6.07;;;1.10;;
74074;SDS011;62428;51.412;5.432;2022-09-09T16:31:43;7.28;;;1.40;;
74074;SDS011;62428;51.412;5.432;2022-09-09T16:34:10;16.10;;;1.70;;
74074;SDS011;62428;51.412;5.432;2022-09-09T16:36:36;4.07;;;0.90;;
74074;SDS011;62428;51.412;5.432;2022-09-09T16:39:06;6.43;;;0.80;;
74074;SDS011;62428;51.412;5.432;2022-09-09T16:41:34;6.80;;;0.90;;
74074;SDS011;62428;51.412;5.432;2022-09-09T16:44:01;9.63;;;1.17;;
74074;SDS011;62428;51.412;5.432;2022-09-09T16:46:29;13.65;;;1.80;;
74074;SDS011;62428;51.412;5.432;2022-09-09T16:48:56;4.65;;;0.52;;
74074;SDS011;62428;51.412;5.432;2022-09-09T16:51:26;2.25;;;0.50;;
74074;SDS011;62428;51.412;5.432;2022-09-09T16:54:00;2.78;;;0.47;;
74074;SDS011;62428;51.412;5.432;2022-09-09T16:56:27;1.23;;;0.30;;
74074;SDS011;62428;51.412;5.432;2022-09-09T16:58:58;1.65;;;0.40;;
74074;SDS011;62428;51.412;5.432;2022-09-09T17:01:25;2.60;;;0.40;;
74074;SDS011;62428;51.412;5.432;2022-09-09T17:03:56;2.10;;;0.40;;
74074;SDS011;62428;51.412;5.432;2022-09-09T17:06:23;2.83;;;0.50;;
74074;SDS011;62428;51.412;5.432;2022-09-09T17:08:53;2.10;;;0.40;;
74074;SDS011;62428;51.412;5.432;2022-09-09T17:11:23;2.50;;;0.40;;
74074;SDS011;62428;51.412;5.432;2022-09-09T17:13:49;2.60;;;0.50;;
74074;SDS011;62428;51.412;5.432;2022-09-09T17:16:17;3.10;;;0.50;;
74074;SDS011;62428;51.412;5.432;2022-09-09T17:18:43;1.48;;;0.40;;